Time;durP1;ratioP1;P1;durP2;ratioP2;P2;SDS_P1;SDS_P2;PMS_P1;PMS_P2;Temp;Humidity;BMP_temperature;BMP_pressure;BME280_temperature;BME280_humidity;BME280_pressure;Samples;Min_cycle;Max_cycle;Signal;HPM_P1;HPM_P2
2022/07/25 00:01:48;;;;;;;1999.90;999.90;;;20.80;98.30;;;;;;5073670;28;20446;-70
2022/07/25 00:04:15;;;;;;;1999.90;999.90;;;20.80;98.30;;;;;;5074220;28;20449;-70
2022/07/25 00:06:42;;;;;;;1999.90;999.90;;;20.80;98.60;;;;;;5072786;28;20558;-70
2022/07/25 00:09:10;;;;;;;1999.90;999.90;;;20.80;98.50;;;;;;5073765;28;20481;-70
2022/07/25 00:11:37;;;;;;;1999.90;999.90;;;20.80;98.80;;;;;;5074010;28;20441;-70
2022/07/25 00:14:04;;;;;;;1999.90;999.90;;;20.70;99.10;;;;;;5073525;28;20942;-70
2022/07/25 00:16:31;;;;;;;1999.90;999.90;;;20.70;98.90;;;;;;5073771;28;20461;-70
2022/07/25 00:18:58;;;;;;;1999.90;999.90;;;20.70;98.70;;;;;;5072548;28;20461;-70
2022/07/25 00:21:24;;;;;;;1999.90;999.90;;;20.90;97.00;;;;;;5073847;28;20472;-70
2022/07/25 00:23:51;;;;;;;1999.90;999.90;;;21.20;96.10;;;;;;5073859;28;20446;-70
2022/07/25 00:26:19;;;;;;;1999.90;999.90;;;21.50;95.10;;;;;;5073119;28;20894;-72
2022/07/25 00:28:45;;;;;;;1999.90;999.90;;;21.80;94.40;;;;;;5073401;28;20477;-70
2022/07/25 00:31:12;;;;;;;1999.90;999.90;;;21.80;94.10;;;;;;5072708;28;20469;-70
2022/07/25 00:33:39;;;;;;;1999.90;999.90;;;21.80;93.90;;;;;;5073456;28;20515;-70
2022/07/25 00:36:07;;;;;;;1999.90;999.90;;;21.80;94.10;;;;;;5073042;28;20481;-68
2022/07/25 00:38:33;;;;;;;1999.90;999.90;;;21.70;94.10;;;;;;5072844;28;20449;-67
2022/07/25 00:41:00;;;;;;;1999.90;999.90;;;21.80;94.00;;;;;;5071716;28;20506;-70
2022/07/25 00:43:28;;;;;;;1999.90;999.90;;;21.80;93.80;;;;;;5070916;28;20461;-70
2022/07/25 00:45:56;;;;;;;1999.90;999.90;;;21.80;93.70;;;;;;5071382;28;20450;-70
2022/07/25 00:48:22;;;;;;;1999.90;999.90;;;21.90;93.90;;;;;;5071110;28;20485;-70
2022/07/25 00:50:49;;;;;;;1999.90;999.90;;;21.90;93.40;;;;;;5071631;28;20854;-71
2022/07/25 00:53:16;;;;;;;1999.90;999.90;;;21.90;93.40;;;;;;5071587;28;20508;-70
2022/07/25 00:55:43;;;;;;;1999.90;999.90;;;21.90;93.40;;;;;;5072078;28;20465;-70
2022/07/25 00:58:09;;;;;;;1999.90;999.90;;;21.90;93.40;;;;;;5072805;28;20445;-70
2022/07/25 01:00:37;;;;;;;1999.90;999.90;;;21.90;93.60;;;;;;5072919;28;20467;-70
2022/07/25 01:03:04;;;;;;;1999.90;999.90;;;21.80;93.50;;;;;;5073129;28;20797;-70
2022/07/25 01:05:31;;;;;;;1999.90;999.90;;;21.80;93.60;;;;;;5072910;28;20569;-70
2022/07/25 01:07:58;;;;;;;1999.90;999.90;;;21.80;93.60;;;;;;5071284;28;20489;-70
2022/07/25 01:10:24;;;;;;;1999.90;999.90;;;21.80;93.50;;;;;;5072926;28;20476;-70
2022/07/25 01:12:52;;;;;;;1999.90;999.90;;;21.80;93.70;;;;;;5072703;28;20491;-70
2022/07/25 01:15:20;;;;;;;1999.90;999.90;;;21.80;93.80;;;;;;5073035;28;20469;-70
2022/07/25 01:17:48;;;;;;;1999.90;999.90;;;21.80;93.90;;;;;;5072347;28;20519;-70
2022/07/25 01:20:17;;;;;;;1999.90;999.90;;;21.60;94.00;;;;;;5071538;28;20458;-70
2022/07/25 01:22:44;;;;;;;1999.90;999.90;;;21.60;94.20;;;;;;5072511;28;20445;-70
2022/07/25 01:25:13;;;;;;;1999.90;999.90;;;21.50;94.60;;;;;;5072761;28;20496;-70
2022/07/25 01:27:40;;;;;;;1999.90;999.90;;;21.30;94.70;;;;;;5072317;28;20519;-69
2022/07/25 01:30:09;;;;;;;1999.90;999.90;;;21.30;95.00;;;;;;5070988;28;20546;-70
2022/07/25 01:32:36;;;;;;;1999.90;999.90;;;21.20;94.90;;;;;;5072253;28;20446;-70
2022/07/25 01:35:04;;;;;;;1999.90;999.90;;;21.10;95.50;;;;;;5070764;28;20466;-70
2022/07/25 01:37:32;;;;;;;1999.90;999.90;;;21.10;95.70;;;;;;5071731;28;20850;-70
2022/07/25 01:39:58;;;;;;;1999.90;999.90;;;21.00;95.90;;;;;;5072328;28;20441;-70
2022/07/25 01:42:25;;;;;;;1999.90;999.90;;;20.90;96.20;;;;;;5070994;28;20914;-70
2022/07/25 01:44:52;;;;;;;1999.90;999.90;;;21.10;96.40;;;;;;5072208;28;20499;-71
2022/07/25 01:47:18;;;;;;;1999.90;999.90;;;20.80;96.40;;;;;;5071688;28;20522;-70
2022/07/25 01:49:45;;;;;;;1999.90;999.90;;;20.70;96.70;;;;;;5072114;28;20969;-70
2022/07/25 01:52:12;;;;;;;1999.90;999.90;;;20.70;96.90;;;;;;5072216;28;20498;-70
2022/07/25 01:54:41;;;;;;;1999.90;999.90;;;20.60;97.10;;;;;;5070912;28;20520;-70
2022/07/25 01:57:08;;;;;;;1999.90;999.90;;;20.60;97.60;;;;;;5071366;28;20461;-70
2022/07/25 01:59:37;;;;;;;1999.90;999.90;;;20.50;97.40;;;;;;5072108;28;20450;-70
2022/07/25 02:02:04;;;;;;;1999.90;999.90;;;20.40;97.50;;;;;;5072032;28;20449;-68
2022/07/25 02:04:30;;;;;;;1999.90;999.90;;;20.30;97.60;;;;;;5071997;28;20507;-68
2022/07/25 02:06:57;;;;;;;1999.90;999.90;;;20.30;97.70;;;;;;5070503;28;20485;-70
2022/07/25 02:09:24;;;;;;;1999.90;999.90;;;20.30;97.90;;;;;;5071629;28;20478;-71
2022/07/25 02:11:52;;;;;;;1999.90;999.90;;;20.30;98.30;;;;;;5071936;28;20818;-70
2022/07/25 02:14:19;;;;;;;1999.90;999.90;;;20.30;98.20;;;;;;5072011;28;20500;-70
2022/07/25 02:16:45;;;;;;;1999.90;999.90;;;20.20;98.30;;;;;;5071626;28;20523;-70
2022/07/25 02:19:12;;;;;;;1999.90;999.90;;;20.10;98.60;;;;;;5070479;28;20522;-70
2022/07/25 02:21:39;;;;;;;1999.90;999.90;;;20.10;98.70;;;;;;5071585;28;20445;-70
2022/07/25 02:24:06;;;;;;;1999.90;999.90;;;20.00;98.80;;;;;;5071435;28;20453;-70
2022/07/25 02:26:32;;;;;;;1999.90;999.90;;;20.10;98.90;;;;;;5071161;28;20469;-70
2022/07/25 02:29:00;;;;;;;1999.90;999.90;;;20.00;98.90;;;;;;5071777;28;20507;-68
2022/07/25 02:31:27;;;;;;;1999.90;999.90;;;20.10;99.00;;;;;;5069885;28;20481;-71
2022/07/25 02:33:53;;;;;;;1999.90;999.90;;;20.10;99.20;;;;;;5071750;28;20647;-69
2022/07/25 02:36:20;;;;;;;1999.90;999.90;;;20.10;98.80;;;;;;5071012;28;20477;-68
2022/07/25 02:38:47;;;;;;;1999.90;999.90;;;20.10;98.90;;;;;;5071735;28;20445;-68
2022/07/25 02:41:13;;;;;;;1999.90;999.90;;;20.10;99.00;;;;;;5071221;28;20935;-68
2022/07/25 02:43:40;;;;;;;1999.90;999.90;;;20.10;99.50;;;;;;5070518;28;20466;-69
2022/07/25 02:46:08;;;;;;;1999.90;999.90;;;20.10;99.70;;;;;;5071202;28;20465;-68
2022/07/25 02:48:35;;;;;;;1999.90;999.90;;;20.00;99.60;;;;;;5071244;28;20458;-69
2022/07/25 02:51:01;;;;;;;1999.90;999.90;;;20.00;99.40;;;;;;5071152;28;20481;-69
2022/07/25 02:53:28;;;;;;;1999.90;999.90;;;20.00;99.10;;;;;;5071380;28;20449;-69
2022/07/25 02:55:55;;;;;;;1999.90;999.90;;;20.00;99.30;;;;;;5070259;28;20884;-68
2022/07/25 02:58:21;;;;;;;1999.90;999.90;;;20.00;99.80;;;;;;5067843;28;20526;-69
2022/07/25 03:00:48;;;;;;;1999.90;999.90;;;20.00;99.60;;;;;;5071009;28;20438;-69
2022/07/25 03:03:16;;;;;;;1999.90;999.90;;;20.10;99.60;;;;;;5071250;28;20457;-69
2022/07/25 03:05:42;;;;;;;1999.90;999.90;;;20.20;99.10;;;;;;5071092;28;20441;-69
2022/07/25 03:08:09;;;;;;;1999.90;999.90;;;20.40;97.90;;;;;;5069909;28;20510;-69
2022/07/25 03:10:36;;;;;;;1999.90;999.90;;;20.90;96.80;;;;;;5071286;28;20477;-69
2022/07/25 03:13:03;;;;;;;1999.90;999.90;;;21.30;96.00;;;;;;5071249;28;20441;-69
2022/07/25 03:15:30;;;;;;;1999.90;999.90;;;21.40;95.60;;;;;;5071187;28;20453;-69
2022/07/25 03:17:56;;;;;;;1999.90;999.90;;;21.60;95.00;;;;;;5070838;28;20526;-68
2022/07/25 03:20:25;;;;;;;1999.90;999.90;;;21.90;94.30;;;;;;5069717;28;20982;-70
2022/07/25 03:22:51;;;;;;;1999.90;999.90;;;22.00;94.10;;;;;;5071261;28;20441;-70
2022/07/25 03:25:18;;;;;;;1999.90;999.90;;;22.00;94.00;;;;;;5071189;28;20446;-70
2022/07/25 03:27:45;;;;;;;1999.90;999.90;;;22.00;94.10;;;;;;5070739;28;20546;-71
2022/07/25 03:30:12;;;;;;;1999.90;999.90;;;21.90;94.10;;;;;;5070545;28;20481;-70
2022/07/25 03:32:40;;;;;;;1999.90;999.90;;;21.80;94.20;;;;;;5068774;28;20488;-70
2022/07/25 03:35:07;;;;;;;1999.90;999.90;;;21.70;94.40;;;;;;5071096;28;20801;-70
2022/07/25 03:37:35;;;;;;;1999.90;999.90;;;21.60;94.60;;;;;;5073189;28;20864;-70
2022/07/25 03:40:02;;;;;;;1999.90;999.90;;;21.50;94.60;;;;;;5074534;28;20451;-70
2022/07/25 03:42:28;;;;;;;1999.90;999.90;;;21.50;94.70;;;;;;5074791;28;20445;-70
2022/07/25 03:44:55;;;;;;;1999.90;999.90;;;21.40;94.80;;;;;;5072998;28;20466;-70
2022/07/25 03:47:21;;;;;;;1999.90;999.90;;;21.40;94.90;;;;;;5054148;28;20466;-71
2022/07/25 03:49:48;;;;;;;1999.90;999.90;;;21.40;94.80;;;;;;5055155;28;20449;-70
2022/07/25 03:52:15;;;;;;;1999.90;999.90;;;21.40;94.80;;;;;;5056254;28;20447;-70
2022/07/25 03:54:43;;;;;;;1999.90;999.90;;;21.40;94.80;;;;;;5055990;28;20874;-71
2022/07/25 03:57:10;;;;;;;1999.90;999.90;;;21.40;95.00;;;;;;5074009;28;20465;-70
2022/07/25 03:59:37;;;;;;;1999.90;999.90;;;21.30;95.10;;;;;;5073802;28;20469;-70
2022/07/25 04:02:04;;;;;;;1999.90;999.90;;;21.20;95.30;;;;;;5073619;28;20548;-69
2022/07/25 04:04:31;;;;;;;1999.90;999.90;;;21.20;95.30;;;;;;5074189;28;20453;-70
2022/07/25 04:06:58;;;;;;;1999.90;999.90;;;21.20;95.40;;;;;;5072622;28;20502;-70
2022/07/25 04:09:24;;;;;;;1999.90;999.90;;;21.20;95.50;;;;;;5074239;28;20495;-70
2022/07/25 04:11:52;;;;;;;1999.90;999.90;;;21.20;95.50;;;;;;5073894;28;20473;-70
2022/07/25 04:14:19;;;;;;;1999.90;999.90;;;21.20;95.50;;;;;;5073673;28;20876;-69
2022/07/25 04:16:45;;;;;;;1999.90;999.90;;;21.30;95.50;;;;;;5073717;28;20527;-70
2022/07/25 04:19:12;;;;;;;1999.90;999.90;;;21.30;95.50;;;;;;5072955;28;21036;-70
2022/07/25 04:21:39;;;;;;;1999.90;999.90;;;21.30;95.60;;;;;;5073906;28;20487;-70
2022/07/25 04:24:06;;;;;;;1999.90;999.90;;;21.30;95.70;;;;;;5073784;28;20441;-70
2022/07/25 04:26:32;;;;;;;1999.90;999.90;;;21.30;95.80;;;;;;5073583;28;20469;-69
2022/07/25 04:29:02;;;;;;;1999.90;999.90;;;21.30;96.20;;;;;;5073854;28;20445;-69
2022/07/25 04:31:29;;;;;;;1999.90;999.90;;;21.20;96.30;;;;;;5072370;28;20478;-70
2022/07/25 04:33:55;;;;;;;1999.90;999.90;;;21.30;96.60;;;;;;5073376;28;20507;-70
2022/07/25 04:36:22;;;;;;;1999.90;999.90;;;21.20;96.70;;;;;;5073071;28;20481;-69
2022/07/25 04:38:49;;;;;;;1999.90;999.90;;;21.20;97.00;;;;;;5073760;28;20502;-70
2022/07/25 04:41:15;;;;;;;1999.90;999.90;;;21.40;97.30;;;;;;5073557;28;20503;-70
2022/07/25 04:43:42;;;;;;;1999.90;999.90;;;21.70;97.10;;;;;;5072073;28;20947;-70
2022/07/25 04:46:10;;;;;;;1999.90;999.90;;;21.90;97.20;;;;;;5071144;28;20500;-70
2022/07/25 04:48:37;;;;;;;1999.90;999.90;;;22.20;96.80;;;;;;5066380;28;20441;-70
2022/07/25 04:51:03;;;;;;;1999.90;999.90;;;22.60;96.50;;;;;;5072993;28;20503;-70
2022/07/25 04:53:30;;;;;;;1999.90;999.90;;;22.80;96.30;;;;;;5073466;28;20465;-70
2022/07/25 04:55:57;;;;;;;1999.90;999.90;;;23.10;96.30;;;;;;5073220;28;20442;-67
2022/07/25 04:58:23;;;;;;;1999.90;999.90;;;23.50;95.50;;;;;;5070453;28;20461;-68
2022/07/25 05:00:50;;;;;;;1999.90;999.90;;;23.50;95.30;;;;;;5073038;28;20499;-67
2022/07/25 05:03:18;;;;;;;1999.90;999.90;;;23.70;96.00;;;;;;5073194;28;20494;-68
2022/07/25 05:05:45;;;;;;;1999.90;999.90;;;23.80;95.40;;;;;;5072905;28;20449;-67
2022/07/25 05:08:12;;;;;;;1999.90;999.90;;;23.90;95.10;;;;;;5068411;28;20465;-67
2022/07/25 05:10:38;;;;;;;1999.90;999.90;;;24.00;95.20;;;;;;5072742;28;20476;-67
2022/07/25 05:13:05;;;;;;;1999.90;999.90;;;23.90;95.00;;;;;;5072802;28;20495;-67
2022/07/25 05:15:32;;;;;;;1999.90;999.90;;;24.10;94.90;;;;;;5072719;28;20495;-68
2022/07/25 05:17:58;;;;;;;1999.90;999.90;;;24.20;94.80;;;;;;5072132;28;20522;-68
2022/07/25 05:20:27;;;;;;;1999.90;999.90;;;24.20;95.00;;;;;;5071673;28;20458;-68
2022/07/25 05:22:53;;;;;;;1999.90;999.90;;;23.90;96.00;;;;;;5072464;28;20451;-68
2022/07/25 05:25:20;;;;;;;1999.90;999.90;;;23.60;96.40;;;;;;5072822;28;20495;-68
2022/07/25 05:27:47;;;;;;;1999.90;999.90;;;23.10;96.50;;;;;;5072070;28;20982;-68
2022/07/25 05:30:14;;;;;;;1999.90;999.90;;;23.40;97.20;;;;;;5070563;28;20457;-67
2022/07/25 05:32:41;;;;;;;1999.90;999.90;;;23.70;97.40;;;;;;5072470;28;20503;-68
2022/07/25 05:35:09;;;;;;;1999.90;999.90;;;24.30;96.10;;;;;;5072305;28;20437;-68
2022/07/25 05:37:38;;;;;;;1999.90;999.90;;;24.30;96.10;;;;;;5071843;28;20485;-68
2022/07/25 05:40:06;;;;;;;1999.90;999.90;;;24.00;96.10;;;;;;5072488;28;20498;-67
2022/07/25 05:42:32;;;;;;;1999.90;999.90;;;24.30;97.20;;;;;;5071189;28;20457;-68
2022/07/25 05:44:59;;;;;;;1999.90;999.90;;;24.80;94.30;;;;;;5072162;28;20873;-68
2022/07/25 05:47:26;;;;;;;1999.90;999.90;;;25.30;92.90;;;;;;5071739;28;20465;-68
2022/07/25 05:49:53;;;;;;;1999.90;999.90;;;25.80;91.50;;;;;;5072365;28;20449;-68
2022/07/25 05:52:19;;;;;;;1999.90;999.90;;;26.10;90.70;;;;;;5072050;28;20554;-70
2022/07/25 05:54:47;;;;;;;1999.90;999.90;;;26.40;90.40;;;;;;5071245;28;20726;-70
2022/07/25 05:57:14;;;;;;;1999.90;999.90;;;26.70;89.70;;;;;;5071312;28;20490;-70
2022/07/25 05:59:41;;;;;;;1999.90;999.90;;;26.90;88.10;;;;;;5071570;28;20494;-71
2022/07/25 06:02:08;;;;;;;1999.90;999.90;;;27.00;87.20;;;;;;5072126;28;20449;-71
2022/07/25 06:04:34;;;;;;;1999.90;999.90;;;27.00;87.40;;;;;;5071700;28;20433;-71
2022/07/25 06:07:01;;;;;;;1999.90;999.90;;;27.10;86.60;;;;;;5070322;28;20534;-71
2022/07/25 06:09:29;;;;;;;1999.90;999.90;;;27.10;86.00;;;;;;5071735;28;20930;-70
2022/07/25 06:11:57;;;;;;;1999.90;999.90;;;27.20;85.00;;;;;;5071685;28;20477;-70
2022/07/25 06:14:24;;;;;;;1999.90;999.90;;;27.30;84.80;;;;;;5072058;28;20453;-70
2022/07/25 06:16:50;;;;;;;1999.90;999.90;;;27.50;84.20;;;;;;5071558;28;20527;-70
2022/07/25 06:19:17;;;;;;;1999.90;999.90;;;27.50;84.00;;;;;;5070331;28;20842;-69
2022/07/25 06:21:43;;;;;;;1999.90;999.90;;;27.80;84.20;;;;;;5071848;28;20480;-69
2022/07/25 06:24:10;;;;;;;1999.90;999.90;;;27.80;83.40;;;;;;5071630;28;20993;-69
2022/07/25 06:26:38;;;;;;;1999.90;999.90;;;27.90;82.50;;;;;;5071410;28;20469;-69
2022/07/25 06:29:07;;;;;;;1999.90;999.90;;;28.00;82.30;;;;;;5071545;28;20812;-69
2022/07/25 06:31:34;;;;;;;1999.90;999.90;;;28.00;82.10;;;;;;5070088;28;20993;-70
2022/07/25 06:34:01;;;;;;;1999.90;999.90;;;28.10;82.00;;;;;;5071489;28;20457;-70
2022/07/25 06:36:27;;;;;;;1999.90;999.90;;;28.30;81.00;;;;;;5070950;28;20477;-70
2022/07/25 06:38:54;;;;;;;1999.90;999.90;;;28.50;80.60;;;;;;5051231;23;20575;-72
2022/07/25 06:41:21;;;;;;;1999.90;999.90;;;28.40;83.40;;;;;;5017379;28;20468;-73
2022/07/25 06:43:47;;;;;;;1999.90;999.90;;;28.50;83.10;;;;;;5031750;28;20493;-72
2022/07/25 06:46:15;;;;;;;1999.90;999.90;;;28.70;81.70;;;;;;5031722;28;20443;-70
2022/07/25 06:48:42;;;;;;;1999.90;999.90;;;28.80;82.70;;;;;;5031026;28;20980;-71
2022/07/25 06:51:09;;;;;;;1999.90;999.90;;;29.20;81.10;;;;;;5031585;28;20479;-72
2022/07/25 06:53:35;;;;;;;1999.90;999.90;;;29.70;80.80;;;;;;5029960;28;20880;-73
2022/07/25 06:56:02;;;;;;;1999.90;999.90;;;30.10;78.60;;;;;;5031396;28;20443;-72
2022/07/25 06:58:28;;;;;;;1999.90;999.90;;;30.20;76.60;;;;;;5031022;28;20980;-72
2022/07/25 07:00:55;;;;;;;1999.90;999.90;;;30.40;75.70;;;;;;5031474;28;20439;-73
2022/07/25 07:03:23;;;;;;;1999.90;999.90;;;30.40;75.00;;;;;;5031679;28;20455;-73
2022/07/25 07:05:50;;;;;;;1999.90;999.90;;;30.10;76.10;;;;;;5030042;28;20529;-72
2022/07/25 07:08:16;;;;;;;1999.90;999.90;;;30.40;75.70;;;;;;5028565;28;20560;-71
2022/07/25 07:10:43;;;;;;;1999.90;999.90;;;30.60;74.60;;;;;;5031661;28;20463;-73
2022/07/25 07:13:11;;;;;;;1999.90;999.90;;;30.60;74.80;;;;;;5035211;28;20447;-72
2022/07/25 07:15:39;;;;;;;1999.90;999.90;;;30.80;73.80;;;;;;5034788;28;20812;-72
2022/07/25 07:18:06;;;;;;;1999.90;999.90;;;30.90;73.70;;;;;;5033983;28;20487;-73
2022/07/25 07:20:35;;;;;;;1999.90;999.90;;;31.10;72.40;;;;;;5034983;28;20443;-73
2022/07/25 07:23:01;;;;;;;1999.90;999.90;;;30.90;71.50;;;;;;5033206;28;20513;-73
2022/07/25 07:25:29;;;;;;;1999.90;999.90;;;30.90;73.30;;;;;;5034755;28;20956;-73
2022/07/25 07:27:56;;;;;;;1999.90;999.90;;;31.00;73.20;;;;;;5034641;28;20471;-72
2022/07/25 07:30:23;;;;;;;1999.90;999.90;;;31.10;71.80;;;;;;5034360;28;20447;-72
2022/07/25 07:32:49;;;;;;;1999.90;999.90;;;31.40;70.80;;;;;;5033655;28;20479;-72
2022/07/25 07:35:17;;;;;;;1999.90;999.90;;;31.40;70.60;;;;;;5034811;28;20513;-72
2022/07/25 07:37:46;;;;;;;1999.90;999.90;;;31.40;70.40;;;;;;5034294;28;20521;-72
2022/07/25 07:40:14;;;;;;;1999.90;999.90;;;31.50;69.60;;;;;;5030913;28;20497;-71
2022/07/25 07:42:43;;;;;;;1999.90;999.90;;;31.60;69.60;;;;;;5034513;28;20451;-71
2022/07/25 07:45:14;;;;;;;1999.90;999.90;;;31.90;69.50;;;;;;5034475;28;20897;-73
2022/07/25 07:47:41;;;;;;;1999.90;999.90;;;31.70;69.40;;;;;;5034475;28;20544;-72
2022/07/25 07:50:10;;;;;;;1999.90;999.90;;;32.00;69.90;;;;;;5033653;28;20517;-72
2022/07/25 07:52:37;;;;;;;1999.90;999.90;;;31.80;70.20;;;;;;5034194;28;20541;-73
2022/07/25 07:57:50;;;;;;;1999.90;999.90;;;31.90;68.80;;;;;;5034043;28;20446;-73
2022/07/25 08:00:18;;;;;;;1999.90;999.90;;;32.10;68.00;;;;;;5034564;28;20446;-71
2022/07/25 08:02:47;;;;;;;1999.90;999.90;;;32.20;67.30;;;;;;5033222;28;20513;-73
2022/07/25 08:05:19;;;;;;;1999.90;999.90;;;32.30;66.80;;;;;;5034103;28;20501;-72
2022/07/25 08:07:45;;;;;;;1999.90;999.90;;;32.50;66.60;;;;;;5033634;28;20471;-71
2022/07/25 08:10:13;;;;;;;1999.90;999.90;;;32.40;65.70;;;;;;5034280;28;20451;-72
2022/07/25 08:12:41;;;;;;;1999.90;999.90;;;32.50;66.00;;;;;;5034117;28;20621;-72
2022/07/25 08:15:09;;;;;;;1999.90;999.90;;;32.20;67.10;;;;;;5032408;28;20546;-72
2022/07/25 08:17:36;;;;;;;1999.90;999.90;;;32.00;66.70;;;;;;5033648;28;20463;-72
2022/07/25 08:20:06;;;;;;;1999.90;999.90;;;31.60;67.10;;;;;;5034242;28;20501;-72
2022/07/25 08:22:37;;;;;;;1999.90;999.90;;;31.90;67.40;;;;;;5032304;28;20459;-72
2022/07/25 08:25:05;;;;;;;1999.90;999.90;;;32.50;66.40;;;;;;5033861;28;20452;-72
2022/07/25 08:27:33;;;;;;;1999.90;999.90;;;32.50;65.50;;;;;;5033596;28;20889;-71
2022/07/25 08:30:00;;;;;;;1999.90;999.90;;;32.40;65.00;;;;;;5033680;28;20536;-72
2022/07/25 08:32:27;;;;;;;1999.90;999.90;;;32.60;65.00;;;;;;5031823;28;20582;-72
2022/07/25 08:34:54;;;;;;;1999.90;999.90;;;32.80;65.00;;;;;;5033776;28;20447;-73
2022/07/25 08:37:20;;;;;;;1999.90;999.90;;;33.20;64.30;;;;;;5033292;28;20886;-70
2022/07/25 08:39:47;;;;;;;1999.90;999.90;;;33.30;62.90;;;;;;5033729;28;20486;-70
2022/07/25 08:42:15;;;;;;;1999.90;999.90;;;33.70;62.90;;;;;;5033507;28;20489;-71
2022/07/25 08:44:49;;;;;;;1999.90;999.90;;;33.80;62.80;;;;;;5031260;28;20467;-68
2022/07/25 08:47:16;;;;;;;1999.90;999.90;;;34.10;61.80;;;;;;5029987;28;20514;-71
2022/07/25 08:49:43;;;;;;;1999.90;999.90;;;34.20;60.80;;;;;;5030543;28;20451;-71
2022/07/25 08:52:10;;;;;;;1999.90;999.90;;;33.30;61.80;;;;;;5027945;28;20483;-72
2022/07/25 08:54:38;;;;;;;1999.90;999.90;;;32.70;63.60;;;;;;5033069;28;20987;-72
2022/07/25 08:57:04;;;;;;;1999.90;999.90;;;32.90;64.40;;;;;;5032741;28;20794;-69
2022/07/25 08:59:31;;;;;;;1999.90;999.90;;;33.40;63.20;;;;;;5032977;28;20865;-71
2022/07/25 09:02:02;;;;;;;1999.90;999.90;;;33.30;62.90;;;;;;5031941;28;20485;-73
2022/07/25 09:04:29;;;;;;;1999.90;999.90;;;33.10;62.10;;;;;;5033083;28;20538;-72
2022/07/25 09:06:56;;;;;;;1999.90;999.90;;;33.00;64.80;;;;;;5032772;28;20859;-72
2022/07/25 09:09:30;;;;;;;1999.90;999.90;;;32.80;64.90;;;;;;5032988;28;20513;-72
2022/07/25 09:11:57;;;;;;;1999.90;999.90;;;33.00;64.00;;;;;;5032597;28;20485;-73
2022/07/25 09:14:24;;;;;;;1999.90;999.90;;;33.00;64.10;;;;;;5031693;28;20495;-73
2022/07/25 09:16:50;;;;;;;1999.90;999.90;;;33.20;64.20;;;;;;5032609;28;20439;-71
2022/07/25 09:19:20;;;;;;;1999.90;999.90;;;33.40;63.10;;;;;;5032852;28;20475;-72
2022/07/25 09:21:59;;;;;;;1999.90;999.90;;;33.00;63.00;;;;;;5032739;28;20512;-74
2022/07/25 09:24:25;;;;;;;1999.90;999.90;;;32.70;63.00;;;;;;5032821;28;20427;-72
2022/07/25 09:26:54;;;;;;;1999.90;999.90;;;33.00;63.50;;;;;;5030666;28;20948;-73
2022/07/25 09:29:23;;;;;;;1999.90;999.90;;;33.00;63.70;;;;;;5032412;28;20810;-72
2022/07/25 09:31:51;;;;;;;1999.90;999.90;;;33.20;63.60;;;;;;5032173;28;20498;-70
2022/07/25 09:34:33;;;;;;;1999.90;999.90;;;33.60;63.00;;;;;;5031874;28;20524;-69
2022/07/25 09:37:00;;;;;;;1999.90;999.90;;;33.70;62.60;;;;;;5032329;28;20467;-72
2022/07/25 09:39:39;;;;;;;1999.90;999.90;;;33.60;63.40;;;;;;5030644;28;20498;-69
2022/07/25 09:42:23;;;;;;;1999.90;999.90;;;33.70;61.70;;;;;;5032356;28;20493;-72
2022/07/25 09:45:06;;;;;;;1999.90;999.90;;;33.60;62.70;;;;;;5032602;28;20435;-70
2022/07/25 09:47:36;;;;;;;1999.90;999.90;;;32.90;62.80;;;;;;5032242;28;20516;-72
2022/07/25 09:50:06;;;;;;;1999.90;999.90;;;32.90;63.90;;;;;;5031714;28;20459;-71
2022/07/25 09:52:33;;;;;;;1999.90;999.90;;;32.80;63.80;;;;;;5031616;28;20479;-69
2022/07/25 09:55:02;;;;;;;1999.90;999.90;;;33.20;63.50;;;;;;5032295;28;20501;-72
2022/07/25 09:57:29;;;;;;;1999.90;999.90;;;33.60;62.70;;;;;;5031432;28;21142;-72
2022/07/25 09:59:56;;;;;;;1999.90;999.90;;;33.50;62.70;;;;;;5031984;28;20447;-72
2022/07/25 10:02:37;;;;;;;1999.90;999.90;;;33.40;63.20;;;;;;5031153;28;20443;-71
2022/07/25 10:05:13;;;;;;;1999.90;999.90;;;33.20;63.80;;;;;;5029583;28;20817;-71
2022/07/25 10:07:43;;;;;;;1999.90;999.90;;;33.20;64.70;;;;;;5031567;28;20550;-72
2022/07/25 10:10:24;;;;;;;1999.90;999.90;;;33.00;63.40;;;;;;5032476;28;20857;-72
2022/07/25 10:13:01;;;;;;;1999.90;999.90;;;32.90;64.10;;;;;;5032050;28;20509;-72
2022/07/25 10:15:40;;;;;;;1999.90;999.90;;;33.00;63.30;;;;;;5030756;28;20466;-72
2022/07/25 10:18:07;;;;;;;1999.90;999.90;;;33.20;63.60;;;;;;5031126;28;21253;-72
2022/07/25 10:20:36;;;;;;;1999.90;999.90;;;33.50;62.80;;;;;;5031991;28;20449;-72
2022/07/25 10:23:03;;;;;;;1999.90;999.90;;;33.50;62.70;;;;;;5031818;28;20443;-72
2022/07/25 10:25:30;;;;;;;1999.90;999.90;;;33.00;63.60;;;;;;5031829;28;20509;-71
2022/07/25 10:28:07;;;;;;;1999.90;999.90;;;33.60;65.00;;;;;;5030229;28;21018;-71
2022/07/25 10:30:35;;;;;;;1999.90;999.90;;;33.90;63.20;;;;;;5024714;28;20478;-68
2022/07/25 10:33:04;;;;;;;1999.90;999.90;;;34.10;62.90;;;;;;5031292;28;21057;-69
2022/07/25 10:35:31;;;;;;;1999.90;999.90;;;34.50;62.20;;;;;;5031696;28;20443;-68
2022/07/25 10:37:59;;;;;;;1999.90;999.90;;;34.70;60.90;;;;;;5031165;28;20483;-70
2022/07/25 10:40:28;;;;;;;1999.90;999.90;;;34.30;61.20;;;;;;5030445;28;20525;-68
2022/07/25 10:43:02;;;;;;;1999.90;999.90;;;34.40;61.70;;;;;;5031336;28;20960;-69
2022/07/25 10:45:38;;;;;;;1999.90;999.90;;;34.40;60.80;;;;;;5032780;28;20458;-71
2022/07/25 10:48:10;;;;;;;1999.90;999.90;;;33.70;61.00;;;;;;5035184;28;20467;-71
2022/07/25 10:50:51;;;;;;;1999.90;999.90;;;33.40;63.40;;;;;;5034148;28;20498;-71
2022/07/25 10:53:37;;;;;;;1999.90;999.90;;;33.70;63.00;;;;;;5035498;28;20471;-71
2022/07/25 10:56:08;;;;;;;1999.90;999.90;;;33.90;62.30;;;;;;5035642;28;20477;-72
2022/07/25 10:58:43;;;;;;;1999.90;999.90;;;33.70;61.60;;;;;;5035408;28;20470;-71
2022/07/25 11:01:09;;;;;;;1999.90;999.90;;;33.70;62.00;;;;;;5035155;28;20986;-72
2022/07/25 11:03:36;;;;;;;1999.90;999.90;;;33.40;61.40;;;;;;5033755;28;21000;-72
2022/07/25 11:06:03;;;;;;;1999.90;999.90;;;33.40;61.80;;;;;;5034345;28;20459;-72
2022/07/25 11:08:32;;;;;;;1999.90;999.90;;;33.20;60.30;;;;;;5034889;28;21045;-72
2022/07/25 11:10:59;;;;;;;1999.90;999.90;;;32.80;59.80;;;;;;5035657;28;20447;-73
2022/07/25 11:13:25;;;;;;;1999.90;999.90;;;32.90;59.80;;;;;;5035244;28;20502;-72
2022/07/25 11:15:56;;;;;;;1999.90;999.90;;;32.60;59.90;;;;;;5033546;28;21026;-72
2022/07/25 11:18:31;;;;;;;1999.90;999.90;;;32.90;61.00;;;;;;5026599;28;20467;-72
2022/07/25 11:20:59;;;;;;;1999.90;999.90;;;33.00;59.40;;;;;;5035132;28;20451;-73
2022/07/25 11:23:26;;;;;;;1999.90;999.90;;;32.80;59.30;;;;;;5035203;28;20443;-73
2022/07/25 11:26:04;;;;;;;1999.90;999.90;;;32.90;60.00;;;;;;5035146;28;20497;-72
2022/07/25 11:28:38;;;;;;;1999.90;999.90;;;33.10;60.30;;;;;;5030728;28;20485;-71
2022/07/25 11:31:05;;;;;;;1999.90;999.90;;;33.40;59.50;;;;;;5032717;28;20886;-73
2022/07/25 11:33:32;;;;;;;1999.90;999.90;;;33.40;59.30;;;;;;5034930;28;20479;-72
2022/07/25 11:35:59;;;;;;;1999.90;999.90;;;32.90;60.90;;;;;;5034960;28;20501;-72
2022/07/25 11:38:26;;;;;;;1999.90;999.90;;;33.20;61.30;;;;;;5034044;28;20533;-70
2022/07/25 11:40:54;;;;;;;1999.90;999.90;;;33.40;61.10;;;;;;5033114;28;20957;-70
2022/07/25 11:43:22;;;;;;;1999.90;999.90;;;33.70;60.90;;;;;;5034663;28;20859;-72
2022/07/25 11:45:56;;;;;;;1999.90;999.90;;;33.40;60.80;;;;;;5034898;28;20863;-72
2022/07/25 11:48:31;;;;;;;1999.90;999.90;;;33.40;59.60;;;;;;5034125;28;20972;-72
2022/07/25 11:50:58;;;;;;;1999.90;999.90;;;33.60;58.90;;;;;;5034662;28;20419;-71
2022/07/25 11:53:25;;;;;;;1999.90;999.90;;;33.50;59.50;;;;;;5033079;28;20487;-73
2022/07/25 11:55:52;;;;;;;1999.90;999.90;;;33.40;59.90;;;;;;5034566;28;20453;-70
2022/07/25 11:58:24;;;;;;;1999.90;999.90;;;33.70;58.30;;;;;;5032794;28;21061;-70
2022/07/25 12:00:50;;;;;;;1999.90;999.90;;;33.90;58.10;;;;;;5034376;28;20461;-72
2022/07/25 12:03:19;;;;;;;1999.90;999.90;;;33.60;57.80;;;;;;5034192;28;20451;-73
2022/07/25 12:05:46;;;;;;;1999.90;999.90;;;33.40;58.10;;;;;;5032079;28;20467;-72